Map

Track Data

SID SEASON NUMBER BASIN SUBBASIN NAME ISO_TIME NATURE LAT LON WMO_WIND WMO_PRES WMO_AGENCY TRACK_TYPE DIST2LAND LANDFALL IFLAG USA_AGENCY USA_ATCF_ID USA_LAT USA_LON USA_RECORD USA_STATUS USA_WIND USA_PRES USA_SSHS USA_R34_NE USA_R34_SE USA_R34_SW USA_R34_NW USA_R50_NE USA_R50_SE USA_R50_SW USA_R50_NW USA_R64_NE USA_R64_SE USA_R64_SW USA_R64_NW USA_POCI USA_ROCI USA_RMW USA_EYE TOKYO_LAT TOKYO_LON TOKYO_GRADE TOKYO_WIND TOKYO_PRES TOKYO_R50_DIR TOKYO_R50_LONG TOKYO_R50_SHORT TOKYO_R30_DIR TOKYO_R30_LONG TOKYO_R30_SHORT TOKYO_LAND CMA_LAT CMA_LON CMA_CAT CMA_WIND CMA_PRES HKO_LAT HKO_LON HKO_CAT HKO_WIND HKO_PRES NEWDELHI_LAT NEWDELHI_LON NEWDELHI_GRADE NEWDELHI_WIND NEWDELHI_PRES NEWDELHI_CI NEWDELHI_DP NEWDELHI_POCI REUNION_LAT REUNION_LON REUNION_TYPE REUNION_WIND REUNION_PRES REUNION_TNUM REUNION_CI REUNION_RMW REUNION_R34_NE REUNION_R34_SE REUNION_R34_SW REUNION_R34_NW REUNION_R50_NE REUNION_R50_SE REUNION_R50_SW REUNION_R50_NW REUNION_R64_NE REUNION_R64_SE REUNION_R64_SW REUNION_R64_NW BOM_LAT BOM_LON BOM_TYPE BOM_WIND BOM_PRES BOM_TNUM BOM_CI BOM_RMW BOM_R34_NE BOM_R34_SE BOM_R34_SW BOM_R34_NW BOM_R50_NE BOM_R50_SE BOM_R50_SW BOM_R50_NW BOM_R64_NE BOM_R64_SE BOM_R64_SW BOM_R64_NW BOM_ROCI BOM_POCI BOM_EYE BOM_POS_METHOD BOM_PRES_METHOD NADI_LAT NADI_LON NADI_CAT NADI_WIND NADI_PRES WELLINGTON_LAT WELLINGTON_LON WELLINGTON_WIND WELLINGTON_PRES DS824_LAT DS824_LON DS824_STAGE DS824_WIND DS824_PRES TD9636_LAT TD9636_LON TD9636_STAGE TD9636_WIND TD9636_PRES TD9635_LAT TD9635_LON TD9635_WIND TD9635_PRES TD9635_ROCI NEUMANN_LAT NEUMANN_LON NEUMANN_CLASS NEUMANN_WIND NEUMANN_PRES MLC_LAT MLC_LON MLC_CLASS MLC_WIND MLC_PRES USA_GUST BOM_GUST BOM_GUST_PER REUNION_GUST REUNION_GUST_PER USA_SEAHGT USA_SEARAD_NE USA_SEARAD_SE USA_SEARAD_SW USA_SEARAD_NW STORM_SPEED STORM_DIR
1977161N06134 1977 44 WP MM RUTH 1977-06-10 00:00:00 TS 6.00000 134.000 main 707 619 __O___________ -1 6.00000 134.000 0 1008 20 265
1977161N06134 1977 44 WP MM RUTH 1977-06-10 03:00:00 TS 5.91766 133.025 main 610 544 __P___________ -1 5.91766 133.025 0 1007 20 270
1977161N06134 1977 44 WP MM RUTH 1977-06-10 06:00:00 TS 6.00000 132.000 main 536 496 __O___________ -1 6.00000 132.000 0 19 1006 21 282
1977161N06134 1977 44 WP MM RUTH 1977-06-10 09:00:00 TS 6.34767 130.925 main 488 379 __P___________ -1 6.34767 130.925 0 19 1006 21 292
1977161N06134 1977 44 WP MM RUTH 1977-06-10 12:00:00 TS 6.80000 130.000 main 379 309 __O___________ -1 6.80000 130.000 0 19 1006 17 298
1977161N06134 1977 44 WP MM RUTH 1977-06-10 15:00:00 TS 7.14964 129.417 main 309 264 __P___________ -1 7.14964 129.417 0 19 1006 12 305
1977161N06134 1977 44 WP MM RUTH 1977-06-10 18:00:00 TS 7.50000 129.000 main 264 220 __O___________ -1 7.50000 129.000 0 19 1006 12 311
1977161N06134 1977 44 WP MM RUTH 1977-06-10 21:00:00 TS 7.91497 128.528 main 210 178 __P___________ -1 7.91497 128.528 0 19 1006 12 312
1977161N06134 1977 44 WP MM RUTH 1977-06-11 00:00:00 TS 8.30000 128.100 main 178 155 __O___________ -1 8.30000 128.100 0 19 1006 10 309
1977161N06134 1977 44 WP MM RUTH 1977-06-11 03:00:00 TS 8.55742 127.735 main 147 120 __P___________ -1 8.55742 127.735 0 19 1005 9 306
1977161N06134 1977 44 WP MM RUTH 1977-06-11 06:00:00 TS 8.80000 127.400 main 120 90 __O___________ -1 8.80000 127.400 0 19 1005 9 309
1977161N06134 1977 44 WP MM RUTH 1977-06-11 09:00:00 TS 9.11249 127.042 main 83 64 __P___________ -1 9.11249 127.042 0 19 1005 10 315
1977161N06134 1977 44 WP MM RUTH 1977-06-11 12:00:00 TS 9.50000 126.700 main 64 62 __O___________ -1 9.50000 126.700 0 19 1005 11 325
1977161N06134 1977 44 WP MM RUTH 1977-06-11 15:00:00 TS 10.0150 126.393 main 71 64 __P___________ -1 10.0150 126.393 0 19 1005 12 329
1977161N06134 1977 44 WP MM RUTH 1977-06-11 18:00:00 TS 10.5000 126.100 main 64 24 __O___________ -1 10.5000 126.100 0 19 1005 9 329
1977161N06134 1977 44 WP MM RUTH 1977-06-11 21:00:00 TS 10.8169 125.905 main 24 10 __P___________ -1 10.8169 125.905 0 19 1005 8 310
1977161N06134 1977 44 WP MM RUTH 1977-06-12 00:00:00 TS 11.0000 125.500 main 11 0 __O___________ -1 11.0000 125.500 0 19 1005 13 281
1977161N06134 1977 44 WP MM RUTH 1977-06-12 03:00:00 TS 11.0731 124.590 main 0 0 __P___________ -1 11.0731 124.590 0 21 1005 20 273
1977161N06134 1977 44 WP MM RUTH 1977-06-12 06:00:00 TS 11.1000 123.500 main 22 0 __O___________ -1 11.1000 123.500 1 23 1005 20 277
1977161N06134 1977 44 WP MM RUTH 1977-06-12 09:00:00 TS 11.3118 122.553 main 0 0 __P___________ -1 11.1622 122.577 1 23 1005 17 285
1977161N06134 1977 44 WP MM RUTH 1977-06-12 12:00:00 TS 11.5333 121.800 main 32 24 __O_______O___ -1 11.3000 121.700 1 23 1005 12.0000 122.000 1 15 290
1977161N06134 1977 44 WP MM RUTH 1977-06-12 15:00:00 TS 11.8151 121.134 main 44 31 __P_______P___ -1 11.5550 120.798 1 23 1005 12.1755 121.592 1 13 296
1977161N06134 1977 44 WP MM RUTH 1977-06-12 18:00:00 TS 12.1236 120.589 main 54 54 __O_______P___ -1 11.9000 120.000 1 23 1005 12.3606 121.188 1 12 301
1977161N06134 1977 44 WP MM RUTH 1977-06-12 21:00:00 TS 12.4218 120.087 main 83 83 __P_______P___ -1 12.2847 119.390 1 30 1001 12.5653 120.789 1 13 301
1977161N06134 1977 44 WP MM RUTH 1977-06-13 00:00:00 TS 12.7778 119.467 1008 tokyo main 109 109 _OO_______O___ -1 13.0000 118.000 2 1008 0 0 0 12.7000 118.900 2 38 998 12.8000 120.400 1 13 302
1977161N06134 1977 44 WP MM RUTH 1977-06-13 03:00:00 TS 13.1174 118.935 main 155 153 _PP_______P___ -1 13.2300 117.793 2 1006 0 0 13.1074 118.420 2 38 998 13.0710 120.022 1 12 305
1977161N06134 1977 44 WP MM RUTH 1977-06-13 06:00:00 TS 13.4526 118.491 1004 tokyo main 195 195 _OO_______P___ -1 13.5000 117.600 2 1004 0 0 0 13.5000 118.000 2 38 998 13.3697 119.650 1 11 310
1977161N06134 1977 44 WP MM RUTH 1977-06-13 09:00:00 TS 13.7920 118.101 main 242 242 _PP_______P___ -1 13.8350 117.435 2 1004 0 0 13.8575 117.590 2 38 996 13.6835 119.278 1 9 317
1977161N06134 1977 44 WP MM RUTH 1977-06-13 12:00:00 TS 14.1333 117.833 1004 tokyo main 259 256 _OO_______O___ -1 14.2000 117.300 2 1004 0 0 0 14.2000 117.300 2 38 995 14.0000 118.900 1 8 325
1977161N06134 1977 44 WP MM RUTH 1977-06-13 15:00:00 TS 14.4613 117.620 main 266 262 _PP_______P___ -1 14.5500 117.178 2 1002 0 0 14.5499 117.212 2 38 995 14.2840 118.471 1 8 330
1977161N06134 1977 44 WP MM RUTH 1977-06-13 18:00:00 TS 14.7901 117.447 1000 tokyo main 276 270 _OO_______P___ -1 14.9000 117.100 2 1000 0 0 0 14.9000 117.200 2 38 995 14.5704 118.040 1 7 333
1977161N06134 1977 44 WP MM RUTH 1977-06-13 21:00:00 TS 15.1163 117.277 main 276 272 _PP_______P___ -1 15.2275 117.085 2 996 0 0 15.2500 117.108 2 43 992 14.8715 117.639 1 8 337
1977161N06134 1977 44 WP MM RUTH 1977-06-14 00:00:00 TS 15.4846 117.146 40 992 tokyo main 283 279 _OOO______O___ -1 15.6000 117.100 3 40 992 0 9 75 75 0 15.6000 117.000 3 48 990 15.7000 117.300 TD 30 992 15.2000 117.300 1 8 343
1977161N06134 1977 44 WP MM RUTH 1977-06-14 03:00:00 TS 15.8969 117.027 main 288 288 _PPP______P___ -1 16.1000 117.130 3 42 991 0 9 87 87 15.9575 116.907 3 48 990 16.0376 117.038 TD 32 995 15.5628 117.040 1 8 343
1977161N06134 1977 44 WP MM RUTH 1977-06-14 06:00:00 TS 16.2717 116.893 45 990 tokyo main 301 301 OOOO_____OP___ jtwc_wp WP031977 16.0000 116.900 TD 40 0 16.6000 117.100 3 45 990 0 9 100 100 0 16.3000 116.800 3 48 990 16.4000 116.800 TS 35 998 16.0000 116.900 TC 40 15.9546 116.845 1 8 338
1977161N06134 1977 44 WP MM RUTH 1977-06-14 09:00:00 TS 16.6249 116.721 main 327 327 PPPP_____PP___ WP031977 16.3900 116.745 TD 45 0 16.9726 116.900 3 45 987 0 9 100 100 16.5925 116.643 3 48 990 16.8000 116.613 TS 40 991 16.3900 116.745 TC 45 16.3692 116.702 1 8 337
1977161N06134 1977 44 WP MM RUTH 1977-06-14 12:00:00 TS 16.9818 116.582 45 985 tokyo main 349 349 OOOO_____OO___ jtwc_wp WP031977 16.8000 116.600 TS 50 0 17.3000 116.700 3 45 985 0 9 100 100 0 16.9000 116.500 3 48 990 17.2000 116.500 TS 45 985 16.8000 116.600 TC 50 16.8000 116.600 2 50 8 344
1977161N06134 1977 44 WP MM RUTH 1977-06-14 15:00:00 TS 17.3721 116.496 main 372 372 PPPP_____PP___ WP031977 17.2425 116.478 TS 52 0 17.6650 116.670 3 45 982 0 9 100 100 17.2850 116.405 3 48 987 17.5500 116.462 TS 47 985 17.2425 116.478 TC 52 17.2477 116.482 2 52 8 352
1977161N06134 1977 44 WP MM RUTH 1977-06-14 18:00:00 TS 17.7846 116.467 45 980 tokyo main 388 388 OOOO_____OP___ jtwc_wp WP031977 17.7000 116.400 TS 55 0 18.0000 116.700 3 45 980 0 9 100 100 0 17.7000 116.400 3 48 985 17.9000 116.500 STS 50 985 17.7000 116.400 TC 55 17.7073 116.403 2 55 8 0
1977161N06134 1977 44 WP MM RUTH 1977-06-14 21:00:00 TS 18.1843 116.475 main 407 407 PPPP_____PP___ WP031977 18.1650 116.363 TS 57 0 18.2350 116.670 3 45 977 0 9 100 100 18.0775 116.513 3 53 981 18.3000 116.570 STS 52 982 18.1650 116.363 TC 57 18.1633 116.373 2 57 8 6
1977161N06134 1977 44 WP MM RUTH 1977-06-15 00:00:00 TS 18.5833 116.550 45 975 tokyo main 406 406 OOOO_____OO___ jtwc_wp WP031977 18.6000 116.400 TS 60 0 18.5000 116.700 3 45 975 0 9 100 100 0 18.5000 116.700 3 58 978 18.7000 116.700 STS 55 980 18.6000 116.400 TC 60 18.6000 116.400 2 60 8 15
1977161N06134 1977 44 WP MM RUTH 1977-06-15 03:00:00 TS 18.9808 116.700 main 411 386 PPPP_____PP___ WP031977 18.9575 116.527 TS 60 0 18.9126 116.877 3 50 977 0 9 125 125 19.0425 116.892 3 58 974 19.0425 116.885 STS 55 982 18.9575 116.527 TC 60 18.9722 116.488 2 58 9 22
1977161N06134 1977 44 WP MM RUTH 1977-06-15 06:00:00 TS 19.3879 116.889 55 980 tokyo main 386 347 OOOO_____OP___ jtwc_wp WP031977 19.3000 116.700 TS 60 0 19.4000 117.100 4 55 980 9 20 20 9 150 150 0 19.6000 117.100 3 58 970 19.4000 117.100 STS 55 985 19.3000 116.700 TC 60 19.3276 116.632 2 57 9 23
1977161N06134 1977 44 WP MM RUTH 1977-06-15 09:00:00 TS 19.8107 117.065 main 351 310 PPPP_____PP___ WP031977 19.6775 116.850 TS 57 0 19.9074 117.250 4 57 980 9 22 22 9 150 150 20.0725 117.315 3 58 975 19.8350 117.315 STS 52 985 19.6775 116.850 TC 57 19.6941 116.810 2 56 9 21
1977161N06134 1977 44 WP MM RUTH 1977-06-15 12:00:00 TS 20.2500 117.233 60 980 tokyo main 299 262 OOOO_____OO___ jtwc_wp WP031977 20.1000 117.000 TS 55 0 20.4000 117.400 4 60 980 9 25 25 9 150 150 0 20.5000 117.500 3 58 980 20.3000 117.500 STS 50 985 20.1000 117.000 TC 55 20.1000 117.000 2 55 9 18
1977161N06134 1977 44 WP MM RUTH 1977-06-15 15:00:00 TS 20.7028 117.384 main 262 226 PPPP_____PP___ WP031977 20.5775 117.143 TS 52 0 20.8225 117.607 4 60 980 9 25 25 9 150 150 20.9075 117.623 3 58 980 20.7500 117.630 STS 47 987 20.5775 117.143 TC 52 20.5818 117.156 2 52 10 16
1977161N06134 1977 44 WP MM RUTH 1977-06-15 18:00:00 TS 21.1675 117.520 60 980 tokyo main 216 184 OOOO_____OP___ jtwc_wp WP031977 21.1000 117.300 TS 50 0 21.2000 117.800 4 60 980 9 25 25 9 150 150 0 21.3000 117.700 3 58 980 21.2000 117.700 TS 45 990 21.1000 117.300 TC 50 21.1049 117.321 2 50 10 14
1977161N06134 1977 44 WP MM RUTH 1977-06-15 21:00:00 TS 21.6292 117.637 main 184 159 PPPP_____PP___ WP031977 21.6500 117.493 TS 47 0 21.5124 117.908 4 60 980 9 25 25 9 150 150 21.6700 117.735 3 58 982 21.6425 117.693 TS 42 990 21.6500 117.493 TC 47 21.6505 117.500 2 47 10 14
1977161N06134 1977 44 WP MM RUTH 1977-06-16 00:00:00 TS 22.1167 117.767 60 980 tokyo main 160 126 OOOO_____OO___ jtwc_wp WP031977 22.2000 117.700 TS 45 0 21.9000 118.000 4 60 980 9 25 25 9 150 150 0 22.1000 117.800 3 58 985 22.1000 117.700 TS 40 990 22.2000 117.700 TC 45 22.2000 117.700 2 45 11 15
1977161N06134 1977 44 WP MM RUTH 1977-06-16 03:00:00 TS 22.6486 117.930 main 126 75 PPPP_____PP___ WP031977 22.6999 117.885 TS 45 0 22.5050 118.142 4 60 982 9 25 25 9 137 137 22.6550 117.963 3 53 987 22.6075 117.812 TS 37 992 22.6999 117.885 TC 45 22.7245 117.893 2 43 11 17
1977161N06134 1977 44 WP MM RUTH 1977-06-16 06:00:00 TS 23.2082 118.135 60 985 tokyo main 75 52 OOOO_____OP___ jtwc_wp WP031977 23.2000 118.100 TS 45 0 23.2000 118.300 4 60 985 9 25 25 9 125 125 0 23.3000 118.200 3 48 990 23.1000 118.000 TS 35 995 23.2000 118.100 TC 45 23.2492 118.112 2 42 12 20
1977161N06134 1977 44 WP MM RUTH 1977-06-16 09:00:00 TS 23.7744 118.373 main 55 22 PPPP_____PP___ WP031977 23.7499 118.370 TS 42 0 23.8649 118.428 4 52 987 9 9 100 100 24.0375 118.485 3 43 992 23.4699 118.213 TS 35 992 23.7499 118.370 TC 42 23.7743 118.375 2 41 12 23
1977161N06134 1977 44 WP MM RUTH 1977-06-16 12:00:00 TS 24.3333 118.667 45 990 tokyo main 24 10 OOOO_____OO___ jtwc_wp WP031977 24.3000 118.700 TS 40 0 24.5000 118.600 3 45 990 0 9 75 75 0 24.7000 118.800 2 38 995 23.9000 118.500 TS 35 990 24.3000 118.700 TC 40 24.3000 118.700 2 40 12 28
1977161N06134 1977 44 WP MM RUTH 1977-06-16 15:00:00 TS 24.8479 119.010 main 15 0 PPPP_____PP___ WP031977 24.7998 119.063 TS 37 0 25.0424 118.863 3 42 992 0 9 62 62 25.0424 119.094 2 33 996 24.5702 118.892 TS 32 995 24.7998 119.063 TC 37 24.8328 119.082 2 37 12 33
1977161N06134 1977 44 WP MM RUTH 1977-06-16 18:00:00 TS 25.3774 119.405 40 994 tokyo main 10 0 OOOO_____OP___ jtwc_wp WP031977 25.3000 119.500 TS 35 0 25.6000 119.200 3 40 994 0 9 50 50 0 25.4000 119.400 1 29 998 25.3000 119.300 TD 30 1000 25.3000 119.500 TC 35 25.3643 119.531 2 35 14 33
1977161N06134 1977 44 WP MM RUTH 1977-06-16 21:00:00 TS 25.9934 119.831 main 9 9 PPPP_____PP___ WP031977 25.8499 120.020 TS 32 -1 26.3452 119.607 3 997 0 9 26.1048 119.720 1 29 998 25.9220 119.579 TD 30 1000 25.8499 120.020 TC 32 25.8887 120.039 2 32 15 33
1977161N06134 1977 44 WP MM RUTH 1977-06-17 00:00:00 TS 26.6000 120.300 1000 tokyo main 19 19 OOOO_____OO___ jtwc_wp WP031977 26.4000 120.600 TD 30 -1 27.0000 120.000 2 1000 0 0 0 26.9000 120.100 1 29 998 26.5000 119.900 TD 30 1000 26.4000 120.600 TC 30 26.4000 120.600 2 30 14 36
1977161N06134 1977 44 WP MM RUTH 1977-06-17 03:00:00 TS 27.1300 120.764 main 31 29 PPPP_____PP___ WP031977 26.9146 121.178 TD 27 -1 27.3154 120.124 2 1000 0 0 27.6469 120.532 1 33 999 27.0945 120.367 TD 27 1000 26.9146 121.178 TC 27 26.8940 121.206 2 27 13 41
1977161N06134 1977 44 WP MM RUTH 1977-06-17 06:00:00 TS 27.6059 121.287 1000 tokyo main 51 38 OOOO_____OP___ jtwc_wp WP031977 27.4000 121.800 TD 25 -1 27.5000 120.500 2 1000 0 0 0 28.2000 121.100 2 38 1000 27.6000 121.000 TD 25 1000 27.4000 121.800 TC 25 27.3728 121.848 2 25 14 53
1977161N06134 1977 44 WP MM RUTH 1977-06-17 09:00:00 TS 27.9583 122.008 main 51 51 PPPP_____PP___ WP031977 27.8583 122.481 TD 22 -1 27.7132 121.564 2 1000 0 0 28.3671 121.827 2 38 1000 27.9489 121.802 TD 25 1000 27.8583 122.481 TC 22 27.8402 122.516 2 22 16 67
1977161N06134 1977 44 WP MM RUTH 1977-06-17 12:00:00 MX 28.2250 122.925 1000 tokyo main 127 127 OOOO_____OO___ jtwc_wp WP031977 28.3000 123.200 TD 20 -1 28.0000 123.000 6 1000 0 0 0 28.4000 122.700 9 38 1000 28.2000 122.700 TD 25 1000 28.3000 123.200 TC 20 28.3000 123.200 6 20 19 71
1977161N06134 1977 44 WP MM RUTH 1977-06-17 15:00:00 ET 28.5603 124.038 main 205 205 _PP___________ WP031977 TD -1 28.5295 124.459 6 1000 0 0 28.5911 123.618 9 33 1000 TD TC 6 22 72
1977161N06134 1977 44 WP MM RUTH 1977-06-17 18:00:00 ET 28.9000 125.350 1000 tokyo main 331 331 _OO___________ -1 29.0000 126.000 6 1000 0 0 0 28.8000 124.700 9 29 1000 6 24 79
1977161N06134 1977 44 WP MM RUTH 1977-06-17 21:00:00 ET 29.0211 126.733 main 416 309 _PP___________ -1 29.0850 127.482 6 1000 0 0 28.9571 125.983 9 26 1000 6 25 85
1977161N06134 1977 44 WP MM RUTH 1977-06-18 00:00:00 ET 29.1000 128.200 1000 tokyo main 302 217 _OO___________ -1 29.1000 129.000 6 1000 0 0 0 29.1000 127.400 9 23 1000 26 84
1977161N06134 1977 44 WP MM RUTH 1977-06-18 03:00:00 ET 29.2716 129.702 main 212 169 _PP___________ -1 29.3108 130.612 6 999 0 0 29.2324 128.792 9 23 1000 27 82
1977161N06134 1977 44 WP MM RUTH 1977-06-18 06:00:00 ET 29.5000 131.300 998 tokyo main 177 177 _OO___________ -1 29.6000 132.300 6 998 0 0 0 29.4000 130.300 9 23 1000 29 81
1977161N06134 1977 44 WP MM RUTH 1977-06-18 09:00:00 ET 29.7368 133.033 main 243 241 _PP___________ -1 29.8539 134.052 6 998 0 0 29.6197 132.013 9 26 1000 31 80
1977161N06134 1977 44 WP MM RUTH 1977-06-18 12:00:00 ET 30.0500 134.800 998 tokyo main 336 336 _OO___________ -1 30.2000 135.800 6 998 0 0 0 29.9000 133.800 9 29 1000 31 77
1977161N06134 1977 44 WP MM RUTH 1977-06-18 15:00:00 ET 30.4416 136.499 main 341 328 _PP___________ -1 30.7035 137.495 6 998 0 0 30.1798 135.503 9 29 1000 30 73
1977161N06134 1977 44 WP MM RUTH 1977-06-18 18:00:00 ET 30.9500 138.150 998 tokyo main 349 343 _OO___________ -1 31.3000 139.100 6 998 0 0 0 30.6000 137.200 9 29 1000 30 68
1977161N06134 1977 44 WP MM RUTH 1977-06-18 21:00:00 ET 31.5635 139.751 main 347 324 _PP___________ -1 31.8738 140.553 6 998 0 0 31.2533 138.949 9 29 1000 30 65
1977161N06134 1977 44 WP MM RUTH 1977-06-19 00:00:00 ET 32.2500 141.350 998 tokyo main 321 319 _OO___________ -1 32.5000 142.000 6 998 0 0 0 32.0000 140.700 9 29 1000 30 64
1977161N06134 1977 44 WP MM RUTH 1977-06-19 03:00:00 ET 32.8987 142.970 main 350 350 _PP___________ -1 33.1753 143.593 6 998 0 0 32.6221 142.347 9 29 1000 31 64
1977161N06134 1977 44 WP MM RUTH 1977-06-19 06:00:00 ET 33.6000 144.700 998 tokyo main 418 418 _OO___________ -1 33.9000 145.300 6 998 0 0 0 33.3000 144.100 9 29 1000 34 64
1977161N06134 1977 44 WP MM RUTH 1977-06-19 09:00:00 ET 34.3643 146.632 main 537 537 _PP___________ -1 34.6326 147.101 6 999 0 0 34.0961 146.164 9 29 1000 37 64
1977161N06134 1977 44 WP MM RUTH 1977-06-19 12:00:00 ET 35.2000 148.700 1000 tokyo main 706 706 _OO___________ -1 35.4000 149.000 6 1000 0 0 0 35.0000 148.400 9 29 1000 38 63
1977161N06134 1977 44 WP MM RUTH 1977-06-19 15:00:00 ET 36.0647 150.782 main 850 850 _PP___________ -1 36.1565 150.911 6 1001 0 0 35.9729 150.652 9 29 1001 39 63
1977161N06134 1977 44 WP MM RUTH 1977-06-19 18:00:00 ET 37.0000 153.000 1002 tokyo main 937 934 _OO___________ -1 37.0000 153.000 6 1002 0 0 0 37.0000 153.000 9 29 1002 43 62
1977161N06134 1977 44 WP MM RUTH 1977-06-19 21:00:00 ET 38.0844 155.510 main 961 958 _PP___________ -1 38.0780 155.481 6 1003 0 0 38.0907 155.539 9 29 1002 44 63
1977161N06134 1977 44 WP MM RUTH 1977-06-20 00:00:00 ET 39.0000 158.000 1004 tokyo main 999 999 _OO___________ -1 39.0000 158.000 6 1004 0 0 0 39.0000 158.000 9 29 1002 38 69
1977161N06134 1977 44 WP MM RUTH 1977-06-20 03:00:00 ET 39.4699 160.113 main 1074 1074 _PP___________ -1 39.4129 160.143 6 1004 0 0 39.5269 160.083 9 29 1002 32 77
1977161N06134 1977 44 WP MM RUTH 1977-06-20 06:00:00 ET 39.7000 162.050 1004 tokyo main 1184 1184 _OO___________ -1 39.6000 162.100 6 1004 0 0 0 39.8000 162.000 9 29 1002 30 82
1977161N06134 1977 44 WP MM RUTH 1977-06-20 09:00:00 ET 39.8827 164.017 main 1297 1297 _PP___________ -1 39.8169 164.037 6 1004 0 0 39.9486 163.996 9 29 1002 30 84
1977161N06134 1977 44 WP MM RUTH 1977-06-20 12:00:00 ET 40.0000 166.000 1004 tokyo main 1378 1378 _OO___________ -1 40.0000 166.000 6 1004 0 0 0 40.0000 166.000 9 29 1002 31 86
1977161N06134 1977 44 WP MM RUTH 1977-06-20 15:00:00 ET 40.1063 168.045 main 1463 1463 _PP___________ -1 40.1767 168.105 6 1004 0 0 40.0359 167.986 9 29 1002 32 86
1977161N06134 1977 44 WP MM RUTH 1977-06-20 18:00:00 ET 40.2143 170.214 1004 tokyo main 1569 1569 _OO___________ -1 40.3000 170.300 6 1004 0 0 0 40.1000 170.100 9 29 1002 34 87
1977161N06134 1977 44 WP MM RUTH 1977-06-20 21:00:00 ET 40.2589 172.532 main 1678 1678 _PP___________ -1 40.2679 172.565 6 1004 0 0 40.2408 172.468 9 29 1002 35 88
1977161N06134 1977 44 WP MM RUTH 1977-06-21 00:00:00 ET 40.3200 174.840 1004 tokyo main 1799 1737 _OO___________ -1 40.3000 174.800 6 1004 0 0 0 40.4000 175.000 9 29 1002 34 85
1977161N06134 1977 44 WP MM RUTH 1977-06-21 03:00:00 ET 40.5710 176.937 main 1733 1606 _P____________ -1 40.5710 176.937 6 1004 0 0 9 32 78
1977161N06134 1977 44 WP MM RUTH 1977-06-21 06:00:00 ET 41.0000 179.000 1004 tokyo main 1602 1477 _O____________ -1 41.0000 179.000 6 1004 0 0 0 32 73
1977161N06134 1977 44 EP CP RUTH 1977-06-21 09:00:00 ET 41.4942 181.007 main 1473 1355 _P____________ -1 41.4942 -178.993 6 1004 0 0 32 72
1977161N06134 1977 44 EP CP RUTH 1977-06-21 12:00:00 ET 42.0000 183.000 main 1351 _O____________ -1 42.0000 183.000 6 1004 0 0 0 31 71

Digital Typhoon Data and Search

About IBTrACS Database

This database is a web-friendly format of International Best Track Archive for Climate Stewardship (IBTrACS), a global best track data archive curated by NOAA dating back to 1842.

Updated: 2021-10-21